Time;durP1;ratioP1;P1;durP2;ratioP2;P2;SDS_P1;SDS_P2;PMS_P1;PMS_P2;Temp;Humidity;BMP_temperature;BMP_pressure;BME280_temperature;BME280_humidity;BME280_pressure;Samples;Min_cycle;Max_cycle;Signal;HPM_P1;HPM_P2
2022/03/24 00:00:44;;;;;;;23.00;13.65;;;11.90;35.90;;;;;;5013121;28;20069;-57
2022/03/24 00:03:09;;;;;;;23.83;13.73;;;11.80;36.00;;;;;;5031054;28;20022;-56
2022/03/24 00:05:35;;;;;;;26.92;13.43;;;11.80;36.10;;;;;;5012880;28;20034;-57
2022/03/24 00:08:01;;;;;;;20.88;13.18;;;11.70;36.00;;;;;;5030444;28;20021;-57
2022/03/24 00:10:27;;;;;;;25.85;14.80;;;11.70;36.00;;;;;;5031291;28;20041;-56
2022/03/24 00:12:53;;;;;;;25.90;13.88;;;11.60;36.10;;;;;;5030489;28;20049;-56
2022/03/24 00:15:19;;;;;;;21.70;12.73;;;11.60;36.10;;;;;;5030409;28;20029;-55
2022/03/24 00:17:44;;;;;;;23.35;13.23;;;11.60;36.10;;;;;;5030653;28;20036;-53
2022/03/24 00:20:14;;;;;;;22.35;13.38;;;11.50;36.10;;;;;;5030935;28;20021;-55
2022/03/24 00:22:40;;;;;;;22.08;13.82;;;11.50;36.10;;;;;;5016391;28;20127;-58
2022/03/24 00:25:06;;;;;;;21.73;13.23;;;11.40;36.10;;;;;;5017003;28;20486;-54
2022/03/24 00:27:32;;;;;;;22.88;12.95;;;11.40;36.00;;;;;;5017196;28;20116;-51
2022/03/24 00:29:58;;;;;;;28.23;13.73;;;11.50;35.90;;;;;;5034205;28;20280;-50
2022/03/24 00:32:24;;;;;;;23.40;13.23;;;11.50;36.10;;;;;;5016734;28;20385;-55
2022/03/24 00:34:49;;;;;;;25.85;13.18;;;11.40;36.00;;;;;;5016523;28;20040;-49
2022/03/24 00:37:15;;;;;;;22.95;13.73;;;11.40;36.50;;;;;;5034774;28;20038;-55
2022/03/24 00:39:41;;;;;;;26.90;13.77;;;11.40;35.90;;;;;;5033958;28;20091;-54
2022/03/24 00:42:11;;;;;;;30.50;13.60;;;11.50;36.00;;;;;;5016678;28;20057;-55
2022/03/24 00:44:40;;;;;;;20.50;13.38;;;11.40;35.90;;;;;;5034324;28;20025;-54
2022/03/24 00:47:06;;;;;;;23.85;14.30;;;11.50;36.00;;;;;;5034384;28;20026;-50
2022/03/24 00:49:32;;;;;;;24.13;13.57;;;11.50;36.10;;;;;;5034341;28;20494;-51
2022/03/24 00:51:57;;;;;;;26.48;14.82;;;11.40;36.10;;;;;;5016219;28;20025;-53
2022/03/24 00:54:23;;;;;;;27.95;14.88;;;11.40;36.10;;;;;;5033745;28;20057;-53
2022/03/24 00:56:50;;;;;;;24.35;13.90;;;11.40;36.20;;;;;;5033881;28;20437;-53
2022/03/24 00:59:15;;;;;;;24.38;13.68;;;11.40;36.20;;;;;;5016752;28;20116;-49
2022/03/24 01:01:41;;;;;;;25.70;12.93;;;11.30;36.30;;;;;;5033597;28;20108;-56
2022/03/24 01:04:09;;;;;;;21.48;12.75;;;11.20;36.30;;;;;;5033839;28;20381;-51
2022/03/24 01:06:35;;;;;;;21.65;12.38;;;11.20;36.30;;;;;;5034373;28;20033;-53
2022/03/24 01:09:02;;;;;;;23.20;13.02;;;11.20;36.40;;;;;;5015529;28;20088;-55
2022/03/24 01:11:28;;;;;;;20.58;12.13;;;11.20;36.50;;;;;;5033564;28;20029;-51
2022/03/24 01:13:54;;;;;;;25.92;13.70;;;11.20;36.70;;;;;;5033007;28;20021;-55
2022/03/24 01:16:21;;;;;;;17.38;11.88;;;11.10;37.30;;;;;;5033743;28;20029;-51
2022/03/24 01:18:46;;;;;;;21.73;12.55;;;11.10;36.70;;;;;;5015270;28;20485;-52
2022/03/24 01:21:16;;;;;;;17.60;11.50;;;11.10;36.70;;;;;;5033514;28;20045;-50
2022/03/24 01:23:43;;;;;;;25.95;12.35;;;11.10;36.90;;;;;;5015506;28;20028;-55
2022/03/24 01:26:09;;;;;;;23.00;12.40;;;11.10;36.90;;;;;;5016095;28;20029;-54
2022/03/24 01:28:35;;;;;;;19.85;12.15;;;11.10;36.90;;;;;;5033614;28;20029;-52
2022/03/24 01:31:01;;;;;;;21.95;12.85;;;11.00;37.00;;;;;;5014659;28;20393;-52
2022/03/24 01:33:27;;;;;;;21.17;13.23;;;11.00;37.10;;;;;;5014750;28;20036;-52
2022/03/24 01:35:53;;;;;;;24.23;11.82;;;11.00;37.10;;;;;;5024326;28;20041;-52
2022/03/24 01:38:19;;;;;;;21.08;11.45;;;11.00;37.10;;;;;;5033054;28;20034;-54
2022/03/24 01:40:45;;;;;;;21.90;12.02;;;11.00;37.10;;;;;;5015178;28;20117;-53
2022/03/24 01:43:11;;;;;;;20.42;11.88;;;11.00;37.00;;;;;;5015633;28;20112;-54
2022/03/24 01:45:38;;;;;;;21.92;11.68;;;11.00;37.00;;;;;;5015863;28;20044;-54
2022/03/24 01:48:08;;;;;;;23.88;11.90;;;11.00;37.10;;;;;;5015312;28;20025;-56
2022/03/24 01:50:35;;;;;;;21.63;12.32;;;11.00;37.00;;;;;;5015542;28;20029;-54
2022/03/24 01:53:02;;;;;;;17.95;11.10;;;11.00;37.00;;;;;;5032869;28;20170;-53
2022/03/24 01:55:29;;;;;;;20.63;11.27;;;11.00;36.90;;;;;;5032613;28;20030;-52
2022/03/24 01:57:55;;;;;;;20.65;11.55;;;11.00;36.90;;;;;;5014220;28;20041;-53
2022/03/24 02:00:21;;;;;;;19.02;12.32;;;11.00;37.80;;;;;;5032815;28;20025;-58
2022/03/24 02:05:33;;;;;;;20.45;11.85;;;10.80;37.50;;;;;;5033148;28;20044;-50
2022/03/24 02:08:06;;;;;;;20.77;11.93;;;10.80;37.60;;;;;;5032190;28;20022;-51
2022/03/24 02:10:33;;;;;;;22.58;12.23;;;10.80;37.60;;;;;;5015071;28;20037;-57
2022/03/24 02:12:59;;;;;;;24.25;12.38;;;10.80;37.60;;;;;;5032107;28;20130;-54
2022/03/24 02:15:26;;;;;;;20.38;11.50;;;10.90;37.50;;;;;;5015015;28;20513;-53
2022/03/24 02:17:52;;;;;;;19.58;11.20;;;10.90;37.30;;;;;;5031805;28;20234;-52
2022/03/24 02:20:19;;;;;;;23.45;12.32;;;10.90;37.20;;;;;;4998767;28;20112;-53
2022/03/24 02:22:46;;;;;;;20.65;11.80;;;10.90;37.20;;;;;;5031832;28;20026;-56
2022/03/24 02:25:12;;;;;;;20.17;12.52;;;10.90;37.30;;;;;;5015085;28;20402;-53
2022/03/24 02:27:39;;;;;;;18.42;12.38;;;10.90;37.40;;;;;;5032277;28;20052;-54
2022/03/24 02:30:06;;;;;;;18.85;12.32;;;10.90;37.40;;;;;;5014640;28;20030;-52
2022/03/24 02:32:31;;;;;;;20.38;13.48;;;10.90;37.50;;;;;;5032461;28;20022;-56
2022/03/24 02:34:57;;;;;;;19.58;12.55;;;10.90;37.50;;;;;;5031529;28;20033;-51
2022/03/24 02:37:25;;;;;;;22.52;12.30;;;11.00;37.60;;;;;;5032239;28;20029;-54
2022/03/24 02:39:52;;;;;;;20.90;12.65;;;10.90;37.50;;;;;;5031733;28;20069;-52
2022/03/24 02:42:21;;;;;;;21.42;12.05;;;10.90;37.60;;;;;;5032163;28;20021;-55
2022/03/24 02:44:59;;;;;;;20.10;11.60;;;11.00;37.70;;;;;;5031563;28;20083;-55
2022/03/24 02:47:25;;;;;;;22.50;12.52;;;10.90;37.70;;;;;;5032564;28;20108;-53
2022/03/24 02:49:53;;;;;;;18.63;11.57;;;11.00;37.70;;;;;;5014705;28;20073;-57
2022/03/24 02:52:19;;;;;;;17.52;11.23;;;11.00;37.80;;;;;;5033689;28;20040;-55
2022/03/24 02:54:45;;;;;;;20.65;11.82;;;10.90;37.70;;;;;;5013590;28;20033;-52
2022/03/24 02:57:12;;;;;;;18.98;11.95;;;11.00;37.80;;;;;;5014688;28;20029;-52
2022/03/24 02:59:38;;;;;;;19.10;11.52;;;10.90;37.90;;;;;;5035635;28;20032;-54
2022/03/24 03:02:16;;;;;;;23.80;12.30;;;10.90;38.00;;;;;;5020036;28;20108;-51
2022/03/24 03:04:45;;;;;;;21.45;11.93;;;10.90;38.00;;;;;;5020134;28;20037;-59
2022/03/24 03:07:11;;;;;;;22.08;11.63;;;10.90;38.00;;;;;;5032476;28;20026;-54
2022/03/24 03:09:39;;;;;;;21.15;11.75;;;10.90;38.10;;;;;;5032056;28;20024;-57
2022/03/24 03:12:05;;;;;;;22.65;12.88;;;10.90;38.30;;;;;;5031136;28;20045;-56
2022/03/24 03:14:32;;;;;;;22.05;12.85;;;10.90;38.20;;;;;;5031585;28;20033;-54
2022/03/24 03:16:59;;;;;;;19.67;11.85;;;10.90;38.40;;;;;;5013426;28;20033;-54
2022/03/24 03:19:25;;;;;;;20.35;12.82;;;10.90;38.50;;;;;;5031440;28;20032;-56
2022/03/24 03:21:52;;;;;;;26.08;11.65;;;10.90;38.60;;;;;;5012902;28;20048;-56
2022/03/24 03:24:21;;;;;;;26.92;12.55;;;10.90;38.60;;;;;;5030951;28;20036;-55
2022/03/24 03:26:47;;;;;;;22.85;12.27;;;10.90;38.70;;;;;;5030455;28;20041;-53
2022/03/24 03:29:13;;;;;;;21.88;12.05;;;10.90;38.70;;;;;;5013944;28;20026;-56
2022/03/24 03:31:39;;;;;;;25.10;13.32;;;10.90;38.80;;;;;;5013757;28;20025;-57
2022/03/24 03:34:07;;;;;;;21.02;12.18;;;10.90;39.00;;;;;;5031244;28;20032;-54
2022/03/24 03:36:33;;;;;;;21.88;12.50;;;10.90;39.00;;;;;;5031282;28;20041;-54
2022/03/24 03:38:59;;;;;;;24.38;13.25;;;10.80;39.20;;;;;;5031280;28;20018;-57
2022/03/24 03:41:27;;;;;;;22.80;13.35;;;10.80;39.40;;;;;;5014201;28;20466;-55
2022/03/24 03:43:53;;;;;;;20.52;11.90;;;10.80;39.60;;;;;;5013237;28;20033;-56
2022/03/24 03:46:19;;;;;;;20.77;12.52;;;10.70;39.60;;;;;;5031371;28;20049;-57
2022/03/24 03:48:45;;;;;;;29.17;11.75;;;10.70;39.60;;;;;;5013363;28;20033;-54
2022/03/24 03:51:12;;;;;;;18.73;11.90;;;10.70;39.70;;;;;;5031609;28;20053;-51
2022/03/24 03:53:38;;;;;;;17.15;11.35;;;10.70;39.50;;;;;;5031043;28;20056;-54
2022/03/24 03:56:05;;;;;;;19.13;11.57;;;10.70;40.10;;;;;;5031630;28;20038;-53
2022/03/24 03:58:34;;;;;;;20.08;11.32;;;10.70;39.40;;;;;;5035544;28;20121;-54
2022/03/24 04:01:00;;;;;;;17.52;11.20;;;10.70;39.40;;;;;;5017580;28;20559;-51
2022/03/24 04:03:27;;;;;;;20.20;11.25;;;10.70;39.40;;;;;;5036002;28;20528;-53
2022/03/24 04:05:55;;;;;;;20.17;12.65;;;10.70;39.50;;;;;;5035098;28;20112;-56
2022/03/24 04:08:21;;;;;;;17.88;11.77;;;10.70;39.60;;;;;;5035772;28;20079;-51
2022/03/24 04:10:48;;;;;;;16.30;11.15;;;10.70;39.60;;;;;;5017664;28;20030;-53
2022/03/24 04:13:15;;;;;;;19.45;12.50;;;10.70;39.60;;;;;;5017927;28;20133;-52
2022/03/24 04:15:41;;;;;;;21.45;11.48;;;10.70;39.50;;;;;;5017303;28;20030;-59
2022/03/24 04:18:07;;;;;;;18.10;11.30;;;10.70;39.50;;;;;;5017183;28;20079;-55
2022/03/24 04:20:33;;;;;;;19.52;12.32;;;10.80;39.50;;;;;;5017519;28;20030;-51
2022/03/24 04:23:02;;;;;;;18.60;12.32;;;10.70;39.50;;;;;;5034004;28;20029;-54
2022/03/24 04:25:28;;;;;;;20.63;12.27;;;10.80;39.40;;;;;;5035281;28;20025;-53
2022/03/24 04:27:54;;;;;;;21.73;12.60;;;10.80;39.40;;;;;;5034108;28;20037;-54
2022/03/24 04:30:21;;;;;;;25.98;12.98;;;10.70;39.40;;;;;;5035282;28;20044;-53
2022/03/24 04:32:50;;;;;;;25.75;12.60;;;10.70;39.80;;;;;;5035118;28;20025;-54
2022/03/24 04:35:16;;;;;;;22.48;11.93;;;10.70;39.80;;;;;;5035367;28;20034;-53
2022/03/24 04:37:43;;;;;;;26.38;12.80;;;10.60;39.80;;;;;;5035365;28;20087;-58
2022/03/24 04:40:12;;;;;;;23.83;12.48;;;10.70;39.90;;;;;;5034904;28;20032;-53
2022/03/24 04:42:39;;;;;;;18.02;12.00;;;10.60;39.90;;;;;;5035038;28;20025;-54
2022/03/24 04:45:06;;;;;;;24.65;12.88;;;10.60;39.90;;;;;;5034603;28;20026;-54
2022/03/24 04:47:33;;;;;;;24.88;13.00;;;10.70;40.10;;;;;;5034844;28;20030;-52
2022/03/24 04:49:58;;;;;;;22.23;13.07;;;10.70;40.30;;;;;;5034431;28;20032;-55
2022/03/24 04:52:24;;;;;;;43.00;24.00;;;10.70;40.40;;;;;;5017764;28;20116;-51
2022/03/24 04:54:50;;;;;;;23.92;14.15;;;10.70;40.50;;;;;;5033701;28;20445;-54
2022/03/24 04:57:16;;;;;;;25.05;12.93;;;10.70;40.50;;;;;;5034367;28;20026;-57
2022/03/24 04:59:42;;;;;;;28.63;14.00;;;10.70;40.50;;;;;;5016668;28;20254;-57
2022/03/24 05:02:12;;;;;;;27.27;14.90;;;10.70;40.60;;;;;;5034539;28;20056;-54
2022/03/24 05:04:37;;;;;;;39.03;13.70;;;10.60;40.70;;;;;;5017043;28;20040;-54
2022/03/24 05:07:03;;;;;;;30.50;13.90;;;10.60;41.10;;;;;;5033785;28;20025;-55
2022/03/24 05:09:29;;;;;;;35.10;14.38;;;10.50;41.50;;;;;;5035505;28;20458;-51
2022/03/24 05:11:55;;;;;;;29.05;13.93;;;10.50;41.60;;;;;;5016593;28;20589;-56
2022/03/24 05:14:21;;;;;;;30.52;13.32;;;10.50;41.70;;;;;;5017734;28;20025;-53
2022/03/24 05:16:46;;;;;;;34.22;13.25;;;10.50;41.80;;;;;;5034531;28;20386;-50
2022/03/24 05:19:13;;;;;;;27.70;13.70;;;10.60;41.50;;;;;;5034799;28;20509;-53
2022/03/24 05:21:39;;;;;;;26.40;13.82;;;10.60;41.40;;;;;;5034424;28;20030;-52
2022/03/24 05:24:05;;;;;;;33.17;14.90;;;10.70;41.40;;;;;;5033553;28;20026;-55
2022/03/24 05:26:31;;;;;;;26.55;13.45;;;10.70;41.30;;;;;;5016969;28;20036;-58
2022/03/24 05:28:56;;;;;;;22.40;12.60;;;10.70;41.20;;;;;;5032650;28;20029;-53
2022/03/24 05:31:23;;;;;;;32.22;14.10;;;10.80;41.20;;;;;;5033612;28;20065;-54
2022/03/24 05:33:48;;;;;;;35.97;16.85;;;10.80;41.20;;;;;;5015813;28;20087;-57
2022/03/24 05:36:15;;;;;;;29.67;14.52;;;10.80;41.20;;;;;;5034066;28;20473;-56
2022/03/24 05:38:41;;;;;;;36.63;14.75;;;10.80;41.80;;;;;;5016613;28;20025;-58
2022/03/24 05:41:13;;;;;;;36.35;14.68;;;10.90;41.20;;;;;;5017429;28;20431;-56
2022/03/24 05:43:39;;;;;;;74.88;17.48;;;10.90;41.10;;;;;;5034889;28;20025;-55
2022/03/24 05:46:05;;;;;;;89.78;18.55;;;10.80;41.20;;;;;;5034446;28;20063;-55
2022/03/24 05:48:32;;;;;;;51.85;16.30;;;10.80;41.20;;;;;;5034250;28;20116;-55
2022/03/24 05:50:59;;;;;;;64.85;17.52;;;10.80;41.40;;;;;;5016428;28;20021;-58
2022/03/24 05:53:25;;;;;;;66.47;17.98;;;10.80;41.70;;;;;;5017347;28;20026;-54
2022/03/24 05:55:50;;;;;;;62.80;17.50;;;10.70;41.80;;;;;;5015821;28;20143;-54
2022/03/24 05:58:17;;;;;;;61.55;17.63;;;10.80;41.70;;;;;;5015948;28;20017;-56
2022/03/24 06:00:43;;;;;;;45.05;17.33;;;10.80;41.70;;;;;;5033378;28;20029;-60
2022/03/24 06:03:09;;;;;;;47.58;16.23;;;10.80;41.60;;;;;;5016604;28;20459;-58
2022/03/24 06:05:40;;;;;;;57.78;16.55;;;10.90;41.60;;;;;;5034194;28;20088;-56
2022/03/24 06:08:07;;;;;;;46.08;16.35;;;10.90;41.80;;;;;;5016442;28;20033;-58
2022/03/24 06:10:33;;;;;;;49.13;17.25;;;10.90;41.70;;;;;;5034207;28;20031;-54
2022/03/24 06:12:59;;;;;;;47.17;17.15;;;11.00;41.60;;;;;;5015749;28;20050;-59
2022/03/24 06:15:25;;;;;;;50.45;16.50;;;11.00;41.50;;;;;;5033961;28;20405;-56
2022/03/24 06:17:51;;;;;;;70.90;18.27;;;11.00;41.30;;;;;;5033599;28;20025;-56
2022/03/24 06:20:17;;;;;;;42.40;15.57;;;11.20;41.30;;;;;;5033146;28;20028;-53
2022/03/24 06:22:51;;;;;;;48.03;15.57;;;11.20;41.10;;;;;;5015310;28;20025;-61
2022/03/24 06:25:17;;;;;;;39.13;14.73;;;11.30;41.10;;;;;;5014842;28;20029;-56
2022/03/24 06:27:43;;;;;;;41.85;14.05;;;11.40;40.90;;;;;;5033059;28;20079;-61
2022/03/24 06:30:09;;;;;;;29.42;14.52;;;11.50;40.80;;;;;;5014739;28;20068;-56
2022/03/24 06:32:36;;;;;;;27.08;13.48;;;11.60;40.70;;;;;;5014831;28;20025;-59
2022/03/24 06:35:05;;;;;;;26.55;13.77;;;11.60;40.30;;;;;;5032147;28;20211;-56
2022/03/24 06:37:39;;;;;;;28.52;14.40;;;11.70;40.10;;;;;;5032585;28;20108;-57
2022/03/24 06:40:08;;;;;;;33.22;14.60;;;11.80;40.00;;;;;;5013592;28;20030;-60
2022/03/24 06:42:35;;;;;;;26.27;14.38;;;11.90;40.00;;;;;;5030935;28;20136;-55
2022/03/24 06:45:01;;;;;;;32.05;14.35;;;12.00;39.80;;;;;;5011959;28;20064;-57
2022/03/24 06:47:27;;;;;;;31.20;15.82;;;12.10;39.70;;;;;;5032035;28;20033;-58
2022/03/24 06:50:02;;;;;;;28.92;15.07;;;12.20;39.50;;;;;;5031277;28;20482;-56
2022/03/24 06:52:28;;;;;;;25.77;12.10;;;12.20;39.20;;;;;;5031990;28;20474;-51
2022/03/24 06:54:54;;;;;;;48.03;14.90;;;12.40;38.70;;;;;;5032713;28;20036;-56
2022/03/24 06:57:20;;;;;;;44.55;15.18;;;12.50;38.40;;;;;;5032071;28;20121;-60
2022/03/24 06:59:45;;;;;;;65.05;16.67;;;12.60;38.00;;;;;;5029922;28;20048;-63
2022/03/24 07:02:11;;;;;;;50.88;17.05;;;12.60;38.10;;;;;;5014042;28;20079;-58
2022/03/24 07:04:37;;;;;;;45.72;15.68;;;12.70;38.20;;;;;;5031598;28;20182;-57
2022/03/24 07:07:06;;;;;;;55.03;18.15;;;12.70;37.90;;;;;;5013373;28;20033;-55
2022/03/24 07:09:32;;;;;;;53.60;19.02;;;12.80;38.00;;;;;;5031893;28;20071;-55
2022/03/24 07:11:58;;;;;;;55.72;16.00;;;12.90;37.80;;;;;;5031563;28;20073;-56
2022/03/24 07:14:24;;;;;;;57.25;16.42;;;13.00;37.30;;;;;;5031947;28;20033;-57
2022/03/24 07:16:51;;;;;;;70.63;17.77;;;13.10;37.20;;;;;;5032158;28;20025;-57
2022/03/24 07:19:18;;;;;;;57.60;17.38;;;13.30;37.20;;;;;;5014478;28;20136;-58
2022/03/24 07:21:44;;;;;;;42.90;14.10;;;13.40;37.10;;;;;;5031488;28;20079;-57
2022/03/24 07:24:10;;;;;;;64.45;17.77;;;13.60;36.40;;;;;;5031149;28;20029;-57
2022/03/24 07:26:36;;;;;;;47.45;16.52;;;15.20;36.90;;;;;;5031622;28;20150;-57
2022/03/24 07:29:02;;;;;;;128.70;22.35;;;19.00;34.60;;;;;;5031228;28;20029;-59
2022/03/24 07:31:28;;;;;;;51.28;16.33;;;22.80;30.20;;;;;;5032000;28;20025;-58
2022/03/24 07:33:57;;;;;;;140.25;21.90;;;26.00;26.90;;;;;;5013912;28;20025;-58
2022/03/24 07:36:25;;;;;;;80.53;18.13;;;28.60;24.50;;;;;;5013467;28;20029;-62
2022/03/24 07:38:52;;;;;;;56.45;15.85;;;30.70;23.30;;;;;;5031561;28;20056;-55
2022/03/24 07:41:18;;;;;;;90.60;16.65;;;32.30;22.20;;;;;;5014040;28;20121;-58
2022/03/24 07:43:44;;;;;;;40.60;13.85;;;33.70;21.50;;;;;;5013513;28;20021;-58
2022/03/24 07:46:10;;;;;;;22.65;10.68;;;35.20;21.10;;;;;;5030999;28;20255;-56
2022/03/24 07:48:35;;;;;;;17.73;10.27;;;36.40;19.90;;;;;;5030619;28;20486;-58
2022/03/24 07:51:01;;;;;;;34.97;10.63;;;37.30;19.50;;;;;;5012531;28;20080;-58
2022/03/24 07:53:39;;;;;;;57.35;14.20;;;38.40;18.90;;;;;;5030534;28;20021;-57
2022/03/24 07:56:07;;;;;;;19.05;10.80;;;39.30;18.60;;;;;;5012274;28;20111;-60
2022/03/24 07:58:34;;;;;;;16.52;8.98;;;39.90;18.10;;;;;;5011929;28;20458;-56
2022/03/24 08:01:00;;;;;;;16.67;9.05;;;40.50;17.80;;;;;;5030770;28;20037;-54
2022/03/24 08:03:26;;;;;;;12.68;9.27;;;40.90;17.40;;;;;;5031157;28;20052;-56
2022/03/24 08:05:53;;;;;;;12.52;8.68;;;41.30;17.40;;;;;;5012577;28;20045;-56
2022/03/24 08:08:20;;;;;;;11.63;8.40;;;41.70;17.10;;;;;;5030567;28;20037;-55
2022/03/24 08:10:48;;;;;;;10.10;7.70;;;41.80;17.00;;;;;;5013511;28;20034;-56
2022/03/24 08:13:17;;;;;;;13.07;7.82;;;42.00;16.90;;;;;;5013577;28;20474;-56
2022/03/24 08:15:43;;;;;;;19.73;9.68;;;41.90;16.80;;;;;;5031478;28;20037;-56
2022/03/24 08:18:10;;;;;;;17.30;10.90;;;41.80;16.90;;;;;;5013294;28;20467;-57
2022/03/24 08:20:37;;;;;;;10.65;8.38;;;41.90;16.80;;;;;;5031187;28;20025;-55
2022/03/24 08:23:04;;;;;;;13.55;8.90;;;41.60;16.50;;;;;;5031247;28;20029;-57
2022/03/24 08:25:30;;;;;;;19.67;10.93;;;41.30;16.70;;;;;;5031619;28;20056;-55
2022/03/24 08:27:56;;;;;;;18.48;9.60;;;41.50;16.60;;;;;;5013667;28;20033;-53
2022/03/24 08:30:22;;;;;;;17.75;8.90;;;41.90;16.70;;;;;;5014194;28;20124;-57
2022/03/24 08:32:49;;;;;;;19.08;10.48;;;42.30;16.50;;;;;;5031225;28;20029;-59
2022/03/24 08:35:15;;;;;;;19.35;10.07;;;42.40;16.30;;;;;;5031251;28;20033;-55
2022/03/24 08:37:41;;;;;;;17.23;13.00;;;42.20;16.20;;;;;;5013259;28;20030;-58
2022/03/24 08:40:07;;;;;;;25.45;10.20;;;41.80;16.10;;;;;;5030364;28;20044;-58
2022/03/24 08:42:43;;;;;;;16.27;9.60;;;40.70;16.10;;;;;;5014390;28;20044;-54
2022/03/24 08:45:12;;;;;;;22.27;8.70;;;38.20;15.70;;;;;;5016314;28;20030;-57
2022/03/24 08:47:38;;;;;;;40.17;12.93;;;35.60;16.40;;;;;;5035020;28;20021;-54
2022/03/24 08:50:06;;;;;;;19.00;9.65;;;33.70;16.90;;;;;;5015663;28;20033;-55
2022/03/24 08:52:32;;;;;;;17.05;9.05;;;32.20;17.20;;;;;;5034827;28;20041;-52
2022/03/24 08:54:58;;;;;;;10.02;7.88;;;30.90;17.60;;;;;;5034314;28;20108;-54
2022/03/24 08:57:27;;;;;;;36.13;11.95;;;29.80;17.90;;;;;;5016872;28;20457;-56
2022/03/24 09:00:00;;;;;;;18.20;9.98;;;28.70;18.20;;;;;;5033792;28;20026;-53
2022/03/24 09:02:26;;;;;;;18.87;9.83;;;27.60;18.50;;;;;;5016406;28;20030;-55
2022/03/24 09:04:52;;;;;;;21.10;10.90;;;26.70;18.90;;;;;;5034267;28;20107;-59
2022/03/24 09:07:18;;;;;;;28.02;12.60;;;25.70;19.30;;;;;;5034400;28;20454;-57
2022/03/24 09:09:44;;;;;;;16.80;11.05;;;24.80;19.70;;;;;;5034312;28;20029;-55
2022/03/24 09:12:11;;;;;;;44.20;12.80;;;24.20;20.20;;;;;;5033749;28;20490;-53
2022/03/24 09:14:41;;;;;;;26.67;11.35;;;23.60;20.60;;;;;;5016362;28;20029;-53
2022/03/24 09:17:07;;;;;;;39.42;13.32;;;23.30;20.90;;;;;;5015551;28;20026;-58
2022/03/24 09:19:52;;;;;;;28.80;12.68;;;23.00;21.20;;;;;;5015203;28;20036;-53
2022/03/24 09:22:17;;;;;;;13.80;10.15;;;22.80;21.60;;;;;;5033417;28;20459;-60
2022/03/24 09:24:43;;;;;;;43.17;13.68;;;22.60;21.70;;;;;;5016015;28;20040;-57
2022/03/24 09:27:09;;;;;;;31.65;12.30;;;22.30;22.00;;;;;;5031738;28;20409;-58
2022/03/24 09:29:35;;;;;;;20.83;11.57;;;22.20;22.20;;;;;;5032340;28;20059;-55
2022/03/24 09:32:01;;;;;;;22.83;12.07;;;21.90;22.30;;;;;;5033287;28;20409;-57
2022/03/24 09:34:27;;;;;;;17.40;11.40;;;21.80;22.30;;;;;;5032915;28;20033;-57
2022/03/24 09:36:52;;;;;;;36.50;12.63;;;21.70;22.50;;;;;;5033055;28;20394;-56
2022/03/24 09:39:19;;;;;;;29.17;13.82;;;21.40;22.70;;;;;;5032896;28;20036;-58
2022/03/24 09:41:48;;;;;;;35.13;13.30;;;21.30;22.60;;;;;;5015359;28;20028;-57
2022/03/24 09:44:14;;;;;;;40.35;14.70;;;21.20;22.80;;;;;;5032183;28;20317;-58
2022/03/24 09:46:42;;;;;;;37.45;14.15;;;21.10;22.90;;;;;;5011319;28;20072;-56
2022/03/24 09:49:10;;;;;;;52.97;16.30;;;21.10;22.90;;;;;;5032621;28;20018;-57
2022/03/24 09:51:40;;;;;;;37.95;13.30;;;21.00;23.20;;;;;;5033353;28;20055;-58
2022/03/24 09:54:07;;;;;;;31.90;13.48;;;20.90;23.30;;;;;;5031857;28;20446;-57
2022/03/24 09:56:34;;;;;;;21.90;12.05;;;20.80;23.30;;;;;;4998779;28;20040;-61
2022/03/24 09:58:59;;;;;;;34.92;12.10;;;20.90;23.30;;;;;;5032430;28;20025;-56
2022/03/24 10:01:25;;;;;;;61.42;15.13;;;20.90;23.30;;;;;;5015592;28;20036;-58
2022/03/24 10:04:02;;;;;;;38.90;14.07;;;20.90;23.30;;;;;;5032031;28;20025;-58
2022/03/24 10:06:28;;;;;;;29.17;14.27;;;20.80;23.40;;;;;;5015350;28;20021;-60
2022/03/24 10:08:54;;;;;;;24.85;13.68;;;20.80;23.50;;;;;;5032957;28;20071;-60
2022/03/24 10:11:25;;;;;;;24.58;13.10;;;20.80;23.60;;;;;;5014420;28;20354;-55
2022/03/24 10:13:56;;;;;;;20.10;13.57;;;20.70;23.60;;;;;;5033582;28;20025;-60
2022/03/24 10:16:34;;;;;;;39.53;15.32;;;20.80;23.40;;;;;;5015079;28;20032;-60
2022/03/24 10:19:10;;;;;;;35.45;13.45;;;20.80;23.50;;;;;;5014378;28;20021;-62
2022/03/24 10:21:38;;;;;;;36.47;14.25;;;20.80;23.50;;;;;;5033051;28;20043;-63
2022/03/24 10:24:13;;;;;;;35.20;13.50;;;20.80;23.40;;;;;;5032280;28;20045;-60
2022/03/24 10:27:00;;;;;;;35.75;14.63;;;20.70;23.60;;;;;;5015426;28;20025;-60
2022/03/24 10:29:27;;;;;;;24.70;14.60;;;20.70;23.70;;;;;;5015340;28;20383;-60
2022/03/24 10:31:55;;;;;;;38.50;14.73;;;20.80;23.60;;;;;;5015019;28;20087;-59
2022/03/24 10:34:30;;;;;;;30.70;14.55;;;20.90;23.50;;;;;;5031961;28;20127;-60
2022/03/24 10:36:56;;;;;;;34.38;15.00;;;21.00;23.50;;;;;;5014728;28;20088;-61
2022/03/24 10:39:26;;;;;;;23.95;13.77;;;21.00;23.40;;;;;;5033369;28;20410;-54
2022/03/24 10:41:52;;;;;;;31.90;15.38;;;21.10;23.30;;;;;;4999475;28;20431;-58
2022/03/24 10:44:18;;;;;;;33.75;15.23;;;21.10;23.20;;;;;;5032373;28;20025;-63
2022/03/24 10:46:45;;;;;;;16.27;12.80;;;21.10;23.30;;;;;;5014699;28;20048;-57
2022/03/24 10:49:22;;;;;;;25.75;13.55;;;21.10;23.40;;;;;;5013595;28;20022;-57
2022/03/24 10:51:49;;;;;;;24.52;14.82;;;21.10;23.50;;;;;;5032232;28;20453;-56
2022/03/24 10:54:19;;;;;;;27.55;14.32;;;21.20;23.30;;;;;;5031626;28;20159;-58
2022/03/24 10:56:57;;;;;;;28.90;13.40;;;21.20;23.40;;;;;;5032381;28;20017;-58
2022/03/24 10:59:29;;;;;;;33.15;15.90;;;21.30;23.20;;;;;;5013879;28;20108;-58
2022/03/24 11:01:55;;;;;;;19.77;13.38;;;21.40;23.00;;;;;;5014432;28;20021;-59
2022/03/24 11:04:21;;;;;;;42.00;16.83;;;21.50;23.10;;;;;;5031115;28;20453;-56
2022/03/24 11:06:51;;;;;;;42.50;15.30;;;21.40;22.90;;;;;;5030421;28;20026;-60
2022/03/24 11:09:27;;;;;;;33.72;16.38;;;21.50;22.80;;;;;;5027842;28;20155;-60
2022/03/24 11:12:31;;;;;;;22.30;14.30;;;21.60;22.70;;;;;;5031327;28;20087;-59
2022/03/24 11:14:59;;;;;;;;;;;21.60;22.70;;;;;;5028620;28;20487;-58
2022/03/24 11:17:27;;;;;;;21.30;14.35;;;21.60;22.30;;;;;;5031557;28;19911;-58
2022/03/24 11:20:15;;;;;;;31.48;16.02;;;21.60;22.50;;;;;;5013621;28;20060;-55
2022/03/24 11:22:43;;;;;;;20.83;12.95;;;21.60;22.40;;;;;;5031622;28;20429;-59
2022/03/24 11:25:28;;;;;;;35.92;17.42;;;21.70;22.70;;;;;;5013506;28;20041;-57
2022/03/24 11:27:57;;;;;;;23.15;16.20;;;21.70;22.50;;;;;;5031482;28;20037;-55
2022/03/24 11:30:24;;;;;;;33.17;18.42;;;21.80;22.70;;;;;;5030400;28;20034;-57
2022/03/24 11:33:09;;;;;;;24.30;16.55;;;21.80;22.50;;;;;;5013690;28;20103;-57
2022/03/24 11:35:36;;;;;;;30.55;19.45;;;21.80;22.20;;;;;;5013639;28;20033;-56
2022/03/24 11:38:03;;;;;;;24.88;15.45;;;21.90;22.30;;;;;;5012789;28;20029;-62
2022/03/24 11:40:32;;;;;;;35.20;20.73;;;22.10;22.50;;;;;;5031525;28;20025;-63
2022/03/24 11:43:17;;;;;;;35.42;16.70;;;22.00;22.10;;;;;;5031667;28;20025;-55
2022/03/24 11:46:06;;;;;;;34.78;15.43;;;21.90;21.90;;;;;;5031149;28;20038;-54
2022/03/24 11:48:36;;;;;;;26.95;14.63;;;21.90;21.90;;;;;;5030918;28;20032;-55
2022/03/24 11:51:06;;;;;;;21.67;13.85;;;21.90;22.10;;;;;;4996119;28;20034;-57
2022/03/24 11:53:35;;;;;;;29.42;15.65;;;21.90;22.00;;;;;;5013480;28;20032;-53
2022/03/24 11:56:01;;;;;;;30.13;18.80;;;21.90;22.10;;;;;;5030878;28;20490;-57
2022/03/24 11:58:34;;;;;;;30.88;15.80;;;21.80;22.00;;;;;;5030878;28;20111;-60
2022/03/24 12:01:17;;;;;;;40.85;15.82;;;21.90;22.00;;;;;;5030340;28;20532;-58
2022/03/24 12:03:48;;;;;;;32.00;17.63;;;22.00;22.10;;;;;;5013613;28;20061;-55
2022/03/24 12:06:18;;;;;;;26.50;15.27;;;22.10;22.30;;;;;;5030700;28;20029;-60
2022/03/24 12:08:50;;;;;;;75.40;53.33;;;22.10;21.80;;;;;;5013100;28;20025;-62
2022/03/24 12:11:31;;;;;;;31.15;17.58;;;22.10;21.50;;;;;;5030093;28;20036;-56
2022/03/24 12:14:05;;;;;;;58.03;15.70;;;22.10;21.60;;;;;;5013467;28;20331;-58
2022/03/24 12:16:31;;;;;;;26.48;15.05;;;22.20;21.60;;;;;;5031012;28;20090;-58
2022/03/24 12:18:58;;;;;;;34.28;16.10;;;22.40;21.60;;;;;;5016975;28;20104;-60
2022/03/24 12:21:26;;;;;;;45.08;17.05;;;22.30;21.60;;;;;;5016723;28;20435;-53
2022/03/24 12:24:17;;;;;;;49.45;27.00;;;22.30;22.00;;;;;;5034797;28;20089;-56
2022/03/24 12:26:49;;;;;;;45.42;18.35;;;22.30;22.10;;;;;;5034433;28;20029;-59
2022/03/24 12:29:17;;;;;;;41.47;18.75;;;22.20;22.20;;;;;;5016532;28;20026;-58
2022/03/24 12:32:05;;;;;;;24.23;16.08;;;22.30;22.30;;;;;;5016938;28;20033;-58
2022/03/24 12:34:52;;;;;;;24.40;14.75;;;22.40;22.30;;;;;;5017049;28;20072;-61